sensor_id;sensor_type;location;lat;lon;timestamp;P1;durP1;ratioP1;P2;durP2;ratioP2
10851;SDS011;5479;52.046;6.314;2022-11-23T00:01:09;11.80;;;6.77;;
10851;SDS011;5479;52.046;6.314;2022-11-23T00:03:41;14.63;;;7.50;;
10851;SDS011;5479;52.046;6.314;2022-11-23T00:06:10;12.13;;;8.27;;
10851;SDS011;5479;52.046;6.314;2022-11-23T00:08:38;12.60;;;7.17;;
10851;SDS011;5479;52.046;6.314;2022-11-23T00:11:07;11.07;;;6.67;;
10851;SDS011;5479;52.046;6.314;2022-11-23T00:13:35;13.17;;;7.30;;
10851;SDS011;5479;52.046;6.314;2022-11-23T00:16:05;11.97;;;7.10;;
10851;SDS011;5479;52.046;6.314;2022-11-23T00:18:34;10.13;;;7.37;;
10851;SDS011;5479;52.046;6.314;2022-11-23T00:21:06;12.93;;;7.70;;
10851;SDS011;5479;52.046;6.314;2022-11-23T00:23:34;13.33;;;7.03;;
10851;SDS011;5479;52.046;6.314;2022-11-23T00:26:03;10.77;;;7.17;;
10851;SDS011;5479;52.046;6.314;2022-11-23T00:28:33;12.30;;;7.93;;
10851;SDS011;5479;52.046;6.314;2022-11-23T00:31:04;13.20;;;8.20;;
10851;SDS011;5479;52.046;6.314;2022-11-23T00:33:32;12.90;;;7.70;;
10851;SDS011;5479;52.046;6.314;2022-11-23T00:36:00;13.27;;;7.97;;
10851;SDS011;5479;52.046;6.314;2022-11-23T00:38:29;10.37;;;6.90;;
10851;SDS011;5479;52.046;6.314;2022-11-23T00:40:57;12.13;;;7.60;;
10851;SDS011;5479;52.046;6.314;2022-11-23T00:43:29;13.47;;;7.03;;
10851;SDS011;5479;52.046;6.314;2022-11-23T00:46:03;14.20;;;7.37;;
10851;SDS011;5479;52.046;6.314;2022-11-23T00:48:32;10.37;;;7.10;;
10851;SDS011;5479;52.046;6.314;2022-11-23T00:51:01;13.00;;;7.53;;
10851;SDS011;5479;52.046;6.314;2022-11-23T00:53:29;12.77;;;7.87;;
10851;SDS011;5479;52.046;6.314;2022-11-23T00:55:57;15.27;;;8.80;;
10851;SDS011;5479;52.046;6.314;2022-11-23T00:58:25;12.33;;;7.83;;
10851;SDS011;5479;52.046;6.314;2022-11-23T01:01:00;10.80;;;7.53;;
10851;SDS011;5479;52.046;6.314;2022-11-23T01:03:31;11.77;;;8.17;;
10851;SDS011;5479;52.046;6.314;2022-11-23T01:06:03;12.67;;;8.43;;
10851;SDS011;5479;52.046;6.314;2022-11-23T01:08:33;11.50;;;8.17;;
10851;SDS011;5479;52.046;6.314;2022-11-23T01:11:02;13.67;;;9.23;;
10851;SDS011;5479;52.046;6.314;2022-11-23T01:13:32;13.93;;;8.50;;
10851;SDS011;5479;52.046;6.314;2022-11-23T01:16:01;16.23;;;9.07;;
10851;SDS011;5479;52.046;6.314;2022-11-23T01:18:29;13.63;;;8.97;;
10851;SDS011;5479;52.046;6.314;2022-11-23T01:20:58;15.30;;;8.87;;
10851;SDS011;5479;52.046;6.314;2022-11-23T01:23:27;14.10;;;9.27;;
10851;SDS011;5479;52.046;6.314;2022-11-23T01:25:56;12.80;;;9.10;;
10851;SDS011;5479;52.046;6.314;2022-11-23T01:28:23;14.67;;;9.03;;
10851;SDS011;5479;52.046;6.314;2022-11-23T01:30:51;13.57;;;9.90;;
10851;SDS011;5479;52.046;6.314;2022-11-23T01:33:19;13.43;;;9.57;;
10851;SDS011;5479;52.046;6.314;2022-11-23T01:35:47;14.13;;;9.63;;
10851;SDS011;5479;52.046;6.314;2022-11-23T01:38:17;16.10;;;9.30;;
10851;SDS011;5479;52.046;6.314;2022-11-23T01:40:44;14.77;;;10.00;;
10851;SDS011;5479;52.046;6.314;2022-11-23T01:43:12;15.30;;;9.57;;
10851;SDS011;5479;52.046;6.314;2022-11-23T01:45:42;14.00;;;9.67;;
10851;SDS011;5479;52.046;6.314;2022-11-23T01:48:23;15.37;;;9.80;;
10851;SDS011;5479;52.046;6.314;2022-11-23T01:50:55;15.00;;;10.03;;
10851;SDS011;5479;52.046;6.314;2022-11-23T01:53:27;14.50;;;9.43;;
10851;SDS011;5479;52.046;6.314;2022-11-23T01:55:56;16.97;;;9.97;;
10851;SDS011;5479;52.046;6.314;2022-11-23T01:58:30;14.40;;;10.07;;
10851;SDS011;5479;52.046;6.314;2022-11-23T02:01:00;17.50;;;9.30;;
10851;SDS011;5479;52.046;6.314;2022-11-23T02:03:28;16.63;;;9.57;;
10851;SDS011;5479;52.046;6.314;2022-11-23T02:05:59;14.73;;;9.93;;
10851;SDS011;5479;52.046;6.314;2022-11-23T02:08:30;16.50;;;9.60;;
10851;SDS011;5479;52.046;6.314;2022-11-23T02:10:58;16.43;;;9.93;;
10851;SDS011;5479;52.046;6.314;2022-11-23T02:13:27;15.10;;;8.93;;
10851;SDS011;5479;52.046;6.314;2022-11-23T02:15:55;16.47;;;9.20;;
10851;SDS011;5479;52.046;6.314;2022-11-23T02:18:25;14.60;;;8.77;;
10851;SDS011;5479;52.046;6.314;2022-11-23T02:20:57;13.57;;;8.57;;
10851;SDS011;5479;52.046;6.314;2022-11-23T02:23:31;15.07;;;8.07;;
10851;SDS011;5479;52.046;6.314;2022-11-23T02:26:05;15.90;;;8.53;;
10851;SDS011;5479;52.046;6.314;2022-11-23T02:28:37;15.70;;;7.87;;
10851;SDS011;5479;52.046;6.314;2022-11-23T02:31:09;12.73;;;7.43;;
10851;SDS011;5479;52.046;6.314;2022-11-23T02:33:37;18.03;;;8.30;;
10851;SDS011;5479;52.046;6.314;2022-11-23T02:38:53;13.47;;;7.00;;
10851;SDS011;5479;52.046;6.314;2022-11-23T02:41:23;12.67;;;7.03;;
10851;SDS011;5479;52.046;6.314;2022-11-23T02:43:52;13.00;;;6.73;;
10851;SDS011;5479;52.046;6.314;2022-11-23T02:46:22;12.97;;;6.13;;
10851;SDS011;5479;52.046;6.314;2022-11-23T02:48:50;13.83;;;6.63;;
10851;SDS011;5479;52.046;6.314;2022-11-23T02:51:18;12.23;;;5.70;;
10851;SDS011;5479;52.046;6.314;2022-11-23T02:53:46;12.90;;;6.33;;
10851;SDS011;5479;52.046;6.314;2022-11-23T02:56:14;11.63;;;5.23;;
10851;SDS011;5479;52.046;6.314;2022-11-23T02:58:43;13.70;;;5.40;;
10851;SDS011;5479;52.046;6.314;2022-11-23T03:01:12;11.03;;;5.10;;
10851;SDS011;5479;52.046;6.314;2022-11-23T03:03:39;13.67;;;5.73;;
10851;SDS011;5479;52.046;6.314;2022-11-23T03:06:07;11.00;;;4.73;;
10851;SDS011;5479;52.046;6.314;2022-11-23T03:08:35;10.10;;;4.70;;
10851;SDS011;5479;52.046;6.314;2022-11-23T03:11:03;12.87;;;4.83;;
10851;SDS011;5479;52.046;6.314;2022-11-23T03:13:31;13.80;;;4.70;;
10851;SDS011;5479;52.046;6.314;2022-11-23T03:16:01;9.87;;;4.20;;
10851;SDS011;5479;52.046;6.314;2022-11-23T03:18:29;9.23;;;4.27;;
10851;SDS011;5479;52.046;6.314;2022-11-23T03:21:00;15.37;;;4.63;;
10851;SDS011;5479;52.046;6.314;2022-11-23T03:23:28;10.27;;;3.70;;
10851;SDS011;5479;52.046;6.314;2022-11-23T03:25:57;13.13;;;4.40;;
10851;SDS011;5479;52.046;6.314;2022-11-23T03:28:25;11.37;;;4.07;;
10851;SDS011;5479;52.046;6.314;2022-11-23T03:30:53;12.43;;;4.20;;
10851;SDS011;5479;52.046;6.314;2022-11-23T03:33:22;12.23;;;4.30;;
10851;SDS011;5479;52.046;6.314;2022-11-23T03:35:50;11.97;;;4.50;;
10851;SDS011;5479;52.046;6.314;2022-11-23T03:38:18;11.27;;;4.00;;
10851;SDS011;5479;52.046;6.314;2022-11-23T03:40:46;12.07;;;4.10;;
10851;SDS011;5479;52.046;6.314;2022-11-23T03:43:14;10.57;;;3.57;;
10851;SDS011;5479;52.046;6.314;2022-11-23T03:45:43;11.47;;;3.83;;
10851;SDS011;5479;52.046;6.314;2022-11-23T03:48:11;9.07;;;3.90;;
10851;SDS011;5479;52.046;6.314;2022-11-23T03:50:40;8.83;;;3.80;;
10851;SDS011;5479;52.046;6.314;2022-11-23T03:53:08;8.90;;;3.53;;
10851;SDS011;5479;52.046;6.314;2022-11-23T03:55:36;10.70;;;4.03;;
10851;SDS011;5479;52.046;6.314;2022-11-23T03:58:04;10.27;;;4.40;;
10851;SDS011;5479;52.046;6.314;2022-11-23T04:00:32;9.63;;;4.07;;
10851;SDS011;5479;52.046;6.314;2022-11-23T04:03:00;10.17;;;4.17;;
10851;SDS011;5479;52.046;6.314;2022-11-23T04:05:28;11.03;;;3.53;;
10851;SDS011;5479;52.046;6.314;2022-11-23T04:07:58;8.03;;;3.50;;
10851;SDS011;5479;52.046;6.314;2022-11-23T04:10:26;6.83;;;3.30;;
10851;SDS011;5479;52.046;6.314;2022-11-23T04:12:54;9.47;;;3.43;;
10851;SDS011;5479;52.046;6.314;2022-11-23T04:15:21;9.80;;;3.70;;
10851;SDS011;5479;52.046;6.314;2022-11-23T04:17:49;11.80;;;3.93;;
10851;SDS011;5479;52.046;6.314;2022-11-23T04:20:17;10.13;;;3.63;;
10851;SDS011;5479;52.046;6.314;2022-11-23T04:22:45;9.03;;;3.77;;
10851;SDS011;5479;52.046;6.314;2022-11-23T04:25:14;11.87;;;3.80;;
10851;SDS011;5479;52.046;6.314;2022-11-23T04:27:43;14.03;;;4.23;;
10851;SDS011;5479;52.046;6.314;2022-11-23T04:30:12;11.30;;;4.23;;
10851;SDS011;5479;52.046;6.314;2022-11-23T04:32:43;11.00;;;4.17;;
10851;SDS011;5479;52.046;6.314;2022-11-23T04:35:11;10.53;;;4.20;;
10851;SDS011;5479;52.046;6.314;2022-11-23T04:37:39;12.97;;;3.83;;
10851;SDS011;5479;52.046;6.314;2022-11-23T04:40:07;10.80;;;4.00;;
10851;SDS011;5479;52.046;6.314;2022-11-23T04:42:37;7.80;;;3.83;;
10851;SDS011;5479;52.046;6.314;2022-11-23T04:45:05;14.50;;;4.70;;
10851;SDS011;5479;52.046;6.314;2022-11-23T04:47:34;10.93;;;3.93;;
10851;SDS011;5479;52.046;6.314;2022-11-23T04:50:03;8.33;;;3.90;;
10851;SDS011;5479;52.046;6.314;2022-11-23T04:52:31;10.10;;;3.80;;
10851;SDS011;5479;52.046;6.314;2022-11-23T04:55:02;7.83;;;4.00;;
10851;SDS011;5479;52.046;6.314;2022-11-23T04:57:30;9.17;;;3.80;;
10851;SDS011;5479;52.046;6.314;2022-11-23T05:00:00;7.30;;;3.67;;
10851;SDS011;5479;52.046;6.314;2022-11-23T05:02:29;12.53;;;4.03;;
10851;SDS011;5479;52.046;6.314;2022-11-23T05:04:57;11.40;;;4.10;;
10851;SDS011;5479;52.046;6.314;2022-11-23T05:07:25;9.17;;;4.07;;
10851;SDS011;5479;52.046;6.314;2022-11-23T05:09:53;11.50;;;4.10;;
10851;SDS011;5479;52.046;6.314;2022-11-23T05:12:21;9.53;;;3.87;;
10851;SDS011;5479;52.046;6.314;2022-11-23T05:14:49;10.33;;;3.73;;
10851;SDS011;5479;52.046;6.314;2022-11-23T05:17:19;10.10;;;3.40;;
10851;SDS011;5479;52.046;6.314;2022-11-23T05:19:47;9.33;;;3.60;;
10851;SDS011;5479;52.046;6.314;2022-11-23T05:22:16;11.70;;;3.70;;
10851;SDS011;5479;52.046;6.314;2022-11-23T05:24:44;10.23;;;3.50;;
10851;SDS011;5479;52.046;6.314;2022-11-23T05:27:12;10.47;;;3.60;;
10851;SDS011;5479;52.046;6.314;2022-11-23T05:29:40;10.00;;;3.07;;
10851;SDS011;5479;52.046;6.314;2022-11-23T05:32:08;8.50;;;3.40;;
10851;SDS011;5479;52.046;6.314;2022-11-23T05:34:37;8.43;;;3.53;;
10851;SDS011;5479;52.046;6.314;2022-11-23T05:37:05;10.13;;;3.70;;
10851;SDS011;5479;52.046;6.314;2022-11-23T05:39:33;9.50;;;3.27;;
10851;SDS011;5479;52.046;6.314;2022-11-23T05:42:01;10.93;;;3.80;;
10851;SDS011;5479;52.046;6.314;2022-11-23T05:44:28;13.10;;;4.03;;
10851;SDS011;5479;52.046;6.314;2022-11-23T05:46:56;9.63;;;3.87;;
10851;SDS011;5479;52.046;6.314;2022-11-23T05:49:24;10.67;;;3.93;;
10851;SDS011;5479;52.046;6.314;2022-11-23T05:51:54;11.57;;;3.73;;
10851;SDS011;5479;52.046;6.314;2022-11-23T05:54:21;7.67;;;3.53;;
10851;SDS011;5479;52.046;6.314;2022-11-23T05:56:49;13.67;;;4.03;;
10851;SDS011;5479;52.046;6.314;2022-11-23T05:59:20;9.93;;;4.07;;
10851;SDS011;5479;52.046;6.314;2022-11-23T06:01:47;9.00;;;4.00;;
10851;SDS011;5479;52.046;6.314;2022-11-23T06:04:15;12.33;;;3.80;;
10851;SDS011;5479;52.046;6.314;2022-11-23T06:06:46;13.47;;;4.00;;
10851;SDS011;5479;52.046;6.314;2022-11-23T06:09:15;10.33;;;3.73;;
10851;SDS011;5479;52.046;6.314;2022-11-23T06:11:43;12.20;;;4.00;;
10851;SDS011;5479;52.046;6.314;2022-11-23T06:14:11;10.83;;;3.37;;
10851;SDS011;5479;52.046;6.314;2022-11-23T06:16:38;14.80;;;3.60;;
10851;SDS011;5479;52.046;6.314;2022-11-23T06:19:06;11.30;;;3.63;;
10851;SDS011;5479;52.046;6.314;2022-11-23T06:21:34;10.63;;;3.60;;
10851;SDS011;5479;52.046;6.314;2022-11-23T06:24:02;9.17;;;3.20;;
10851;SDS011;5479;52.046;6.314;2022-11-23T06:26:32;11.73;;;3.73;;
10851;SDS011;5479;52.046;6.314;2022-11-23T06:29:00;14.57;;;4.03;;
10851;SDS011;5479;52.046;6.314;2022-11-23T06:31:28;16.27;;;3.73;;
10851;SDS011;5479;52.046;6.314;2022-11-23T06:33:56;11.80;;;3.53;;
10851;SDS011;5479;52.046;6.314;2022-11-23T06:36:24;10.30;;;3.37;;
10851;SDS011;5479;52.046;6.314;2022-11-23T06:38:52;7.27;;;2.93;;
10851;SDS011;5479;52.046;6.314;2022-11-23T06:41:20;11.07;;;3.23;;
10851;SDS011;5479;52.046;6.314;2022-11-23T06:43:49;12.13;;;3.43;;
10851;SDS011;5479;52.046;6.314;2022-11-23T06:46:17;10.80;;;3.77;;
10851;SDS011;5479;52.046;6.314;2022-11-23T06:48:45;9.93;;;3.23;;
10851;SDS011;5479;52.046;6.314;2022-11-23T06:51:14;9.87;;;2.93;;
10851;SDS011;5479;52.046;6.314;2022-11-23T06:53:42;10.10;;;3.80;;
10851;SDS011;5479;52.046;6.314;2022-11-23T06:56:10;11.77;;;3.67;;
10851;SDS011;5479;52.046;6.314;2022-11-23T06:58:38;11.10;;;3.60;;
10851;SDS011;5479;52.046;6.314;2022-11-23T07:01:08;12.13;;;3.37;;
10851;SDS011;5479;52.046;6.314;2022-11-23T07:03:36;9.70;;;3.10;;
10851;SDS011;5479;52.046;6.314;2022-11-23T07:06:04;12.03;;;3.30;;
10851;SDS011;5479;52.046;6.314;2022-11-23T07:08:33;9.50;;;3.27;;
10851;SDS011;5479;52.046;6.314;2022-11-23T07:11:02;9.20;;;3.13;;
10851;SDS011;5479;52.046;6.314;2022-11-23T07:13:32;11.17;;;3.63;;
10851;SDS011;5479;52.046;6.314;2022-11-23T07:16:00;10.67;;;3.00;;
10851;SDS011;5479;52.046;6.314;2022-11-23T07:18:29;9.37;;;3.03;;
10851;SDS011;5479;52.046;6.314;2022-11-23T07:20:57;11.57;;;3.13;;
10851;SDS011;5479;52.046;6.314;2022-11-23T07:23:25;12.20;;;3.60;;
10851;SDS011;5479;52.046;6.314;2022-11-23T07:25:53;10.40;;;3.20;;
10851;SDS011;5479;52.046;6.314;2022-11-23T07:28:21;10.77;;;3.10;;
10851;SDS011;5479;52.046;6.314;2022-11-23T07:30:49;10.73;;;3.13;;
10851;SDS011;5479;52.046;6.314;2022-11-23T07:33:18;13.73;;;3.93;;
10851;SDS011;5479;52.046;6.314;2022-11-23T07:35:47;11.80;;;3.00;;
10851;SDS011;5479;52.046;6.314;2022-11-23T07:38:16;10.37;;;3.30;;
10851;SDS011;5479;52.046;6.314;2022-11-23T07:40:47;12.77;;;3.23;;
10851;SDS011;5479;52.046;6.314;2022-11-23T07:43:15;9.93;;;2.87;;
10851;SDS011;5479;52.046;6.314;2022-11-23T07:45:43;9.73;;;2.60;;
10851;SDS011;5479;52.046;6.314;2022-11-23T07:48:12;14.97;;;2.90;;
10851;SDS011;5479;52.046;6.314;2022-11-23T07:50:41;12.03;;;3.07;;
10851;SDS011;5479;52.046;6.314;2022-11-23T07:53:11;9.80;;;2.93;;
10851;SDS011;5479;52.046;6.314;2022-11-23T07:55:39;9.97;;;2.60;;
10851;SDS011;5479;52.046;6.314;2022-11-23T07:58:07;13.17;;;3.77;;
10851;SDS011;5479;52.046;6.314;2022-11-23T08:00:36;12.37;;;3.10;;
10851;SDS011;5479;52.046;6.314;2022-11-23T08:03:05;14.20;;;3.23;;
10851;SDS011;5479;52.046;6.314;2022-11-23T08:05:33;11.87;;;3.20;;
10851;SDS011;5479;52.046;6.314;2022-11-23T08:08:02;9.63;;;3.47;;
10851;SDS011;5479;52.046;6.314;2022-11-23T08:10:31;12.83;;;3.17;;
10851;SDS011;5479;52.046;6.314;2022-11-23T08:13:03;10.80;;;3.37;;
10851;SDS011;5479;52.046;6.314;2022-11-23T08:15:32;12.47;;;3.00;;
10851;SDS011;5479;52.046;6.314;2022-11-23T08:18:01;10.73;;;3.13;;
10851;SDS011;5479;52.046;6.314;2022-11-23T08:20:29;13.30;;;3.37;;
10851;SDS011;5479;52.046;6.314;2022-11-23T08:22:58;9.20;;;3.10;;
10851;SDS011;5479;52.046;6.314;2022-11-23T08:25:27;11.60;;;3.10;;
10851;SDS011;5479;52.046;6.314;2022-11-23T08:27:57;13.53;;;3.10;;
10851;SDS011;5479;52.046;6.314;2022-11-23T08:30:27;15.53;;;3.40;;
10851;SDS011;5479;52.046;6.314;2022-11-23T08:32:56;10.93;;;3.20;;
10851;SDS011;5479;52.046;6.314;2022-11-23T08:35:24;9.00;;;2.80;;
10851;SDS011;5479;52.046;6.314;2022-11-23T08:37:52;12.33;;;3.47;;
10851;SDS011;5479;52.046;6.314;2022-11-23T08:40:20;14.10;;;3.53;;
10851;SDS011;5479;52.046;6.314;2022-11-23T08:42:48;11.57;;;2.90;;
10851;SDS011;5479;52.046;6.314;2022-11-23T08:45:17;10.53;;;2.60;;
10851;SDS011;5479;52.046;6.314;2022-11-23T08:47:45;9.07;;;3.00;;
10851;SDS011;5479;52.046;6.314;2022-11-23T08:50:16;9.40;;;3.07;;
10851;SDS011;5479;52.046;6.314;2022-11-23T08:52:45;10.47;;;2.73;;
10851;SDS011;5479;52.046;6.314;2022-11-23T08:55:13;13.83;;;3.20;;
10851;SDS011;5479;52.046;6.314;2022-11-23T08:57:41;11.83;;;3.27;;
10851;SDS011;5479;52.046;6.314;2022-11-23T09:00:09;9.77;;;2.83;;
10851;SDS011;5479;52.046;6.314;2022-11-23T09:02:39;13.33;;;3.40;;
10851;SDS011;5479;52.046;6.314;2022-11-23T09:05:07;9.47;;;3.03;;
10851;SDS011;5479;52.046;6.314;2022-11-23T09:07:35;13.57;;;3.27;;
10851;SDS011;5479;52.046;6.314;2022-11-23T09:10:04;12.13;;;2.63;;
10851;SDS011;5479;52.046;6.314;2022-11-23T09:12:32;13.70;;;3.47;;
10851;SDS011;5479;52.046;6.314;2022-11-23T09:15:01;8.00;;;2.50;;
10851;SDS011;5479;52.046;6.314;2022-11-23T09:17:29;8.27;;;2.90;;
10851;SDS011;5479;52.046;6.314;2022-11-23T09:19:59;11.17;;;2.80;;
10851;SDS011;5479;52.046;6.314;2022-11-23T09:22:27;8.90;;;2.87;;
10851;SDS011;5479;52.046;6.314;2022-11-23T09:24:57;9.80;;;2.90;;
10851;SDS011;5479;52.046;6.314;2022-11-23T09:27:24;11.47;;;2.83;;
10851;SDS011;5479;52.046;6.314;2022-11-23T09:29:55;6.83;;;2.67;;
10851;SDS011;5479;52.046;6.314;2022-11-23T09:32:23;11.43;;;3.13;;
10851;SDS011;5479;52.046;6.314;2022-11-23T09:34:52;8.97;;;2.47;;
10851;SDS011;5479;52.046;6.314;2022-11-23T09:37:22;11.43;;;3.27;;
10851;SDS011;5479;52.046;6.314;2022-11-23T09:39:52;10.77;;;3.03;;
10851;SDS011;5479;52.046;6.314;2022-11-23T09:42:29;11.20;;;2.60;;
10851;SDS011;5479;52.046;6.314;2022-11-23T09:45:14;10.93;;;2.73;;
10851;SDS011;5479;52.046;6.314;2022-11-23T09:47:55;8.67;;;2.53;;
10851;SDS011;5479;52.046;6.314;2022-11-23T09:50:33;8.67;;;2.70;;
10851;SDS011;5479;52.046;6.314;2022-11-23T09:53:14;10.90;;;3.10;;
10851;SDS011;5479;52.046;6.314;2022-11-23T09:55:47;8.40;;;2.73;;
10851;SDS011;5479;52.046;6.314;2022-11-23T09:58:17;10.57;;;2.70;;
10851;SDS011;5479;52.046;6.314;2022-11-23T10:00:48;10.63;;;2.73;;
10851;SDS011;5479;52.046;6.314;2022-11-23T10:03:24;9.03;;;2.90;;
10851;SDS011;5479;52.046;6.314;2022-11-23T10:05:55;9.03;;;2.87;;
10851;SDS011;5479;52.046;6.314;2022-11-23T10:08:34;8.90;;;2.73;;
10851;SDS011;5479;52.046;6.314;2022-11-23T10:11:23;7.67;;;2.70;;
10851;SDS011;5479;52.046;6.314;2022-11-23T10:14:13;9.00;;;2.73;;
10851;SDS011;5479;52.046;6.314;2022-11-23T10:16:58;7.50;;;2.67;;
10851;SDS011;5479;52.046;6.314;2022-11-23T10:19:40;10.37;;;2.80;;
10851;SDS011;5479;52.046;6.314;2022-11-23T10:22:25;9.63;;;2.83;;
10851;SDS011;5479;52.046;6.314;2022-11-23T10:25:04;8.37;;;2.77;;
10851;SDS011;5479;52.046;6.314;2022-11-23T10:27:40;10.43;;;2.63;;
10851;SDS011;5479;52.046;6.314;2022-11-23T10:32:40;8.70;;;2.13;;
10851;SDS011;5479;52.046;6.314;2022-11-23T10:35:12;7.57;;;2.27;;
10851;SDS011;5479;52.046;6.314;2022-11-23T10:37:42;7.90;;;2.30;;
10851;SDS011;5479;52.046;6.314;2022-11-23T10:40:14;8.37;;;2.47;;
10851;SDS011;5479;52.046;6.314;2022-11-23T10:42:48;8.27;;;2.60;;
10851;SDS011;5479;52.046;6.314;2022-11-23T10:45:20;7.97;;;2.20;;
10851;SDS011;5479;52.046;6.314;2022-11-23T10:47:50;9.80;;;2.50;;
10851;SDS011;5479;52.046;6.314;2022-11-23T10:50:22;9.07;;;2.50;;
10851;SDS011;5479;52.046;6.314;2022-11-23T10:52:55;9.27;;;2.30;;
10851;SDS011;5479;52.046;6.314;2022-11-23T10:55:28;8.63;;;2.47;;
10851;SDS011;5479;52.046;6.314;2022-11-23T10:57:58;6.80;;;2.00;;
10851;SDS011;5479;52.046;6.314;2022-11-23T11:00:26;8.73;;;2.37;;
10851;SDS011;5479;52.046;6.314;2022-11-23T11:02:56;7.97;;;2.30;;
10851;SDS011;5479;52.046;6.314;2022-11-23T11:05:27;5.87;;;2.20;;
10851;SDS011;5479;52.046;6.314;2022-11-23T11:07:58;7.17;;;1.90;;
10851;SDS011;5479;52.046;6.314;2022-11-23T11:10:34;9.97;;;2.63;;
10851;SDS011;5479;52.046;6.314;2022-11-23T11:13:24;8.53;;;2.70;;
10851;SDS011;5479;52.046;6.314;2022-11-23T11:15:56;8.23;;;2.40;;
10851;SDS011;5479;52.046;6.314;2022-11-23T11:18:25;7.40;;;2.40;;
10851;SDS011;5479;52.046;6.314;2022-11-23T11:20:56;8.53;;;2.53;;
10851;SDS011;5479;52.046;6.314;2022-11-23T11:23:30;7.90;;;2.37;;
10851;SDS011;5479;52.046;6.314;2022-11-23T11:26:05;10.17;;;2.57;;
10851;SDS011;5479;52.046;6.314;2022-11-23T11:28:36;6.97;;;2.37;;
10851;SDS011;5479;52.046;6.314;2022-11-23T11:31:24;9.73;;;2.70;;
10851;SDS011;5479;52.046;6.314;2022-11-23T11:34:02;7.53;;;2.50;;
10851;SDS011;5479;52.046;6.314;2022-11-23T11:36:37;8.43;;;2.20;;
10851;SDS011;5479;52.046;6.314;2022-11-23T11:39:12;9.70;;;2.83;;
10851;SDS011;5479;52.046;6.314;2022-11-23T11:41:50;7.40;;;2.20;;
10851;SDS011;5479;52.046;6.314;2022-11-23T11:44:21;7.63;;;2.30;;
10851;SDS011;5479;52.046;6.314;2022-11-23T11:46:53;7.53;;;2.33;;
10851;SDS011;5479;52.046;6.314;2022-11-23T11:49:25;9.97;;;2.10;;
10851;SDS011;5479;52.046;6.314;2022-11-23T11:51:58;7.87;;;2.13;;
10851;SDS011;5479;52.046;6.314;2022-11-23T11:54:34;7.07;;;2.30;;
10851;SDS011;5479;52.046;6.314;2022-11-23T11:57:12;8.57;;;2.33;;
10851;SDS011;5479;52.046;6.314;2022-11-23T11:59:44;10.23;;;2.57;;
10851;SDS011;5479;52.046;6.314;2022-11-23T12:02:18;6.13;;;2.03;;
10851;SDS011;5479;52.046;6.314;2022-11-23T12:04:53;8.37;;;2.30;;
10851;SDS011;5479;52.046;6.314;2022-11-23T12:07:28;9.07;;;2.50;;
10851;SDS011;5479;52.046;6.314;2022-11-23T12:10:00;5.77;;;2.07;;
10851;SDS011;5479;52.046;6.314;2022-11-23T12:12:34;7.30;;;2.10;;
10851;SDS011;5479;52.046;6.314;2022-11-23T12:15:04;8.07;;;2.20;;
10851;SDS011;5479;52.046;6.314;2022-11-23T12:17:40;5.33;;;1.83;;
10851;SDS011;5479;52.046;6.314;2022-11-23T12:20:22;6.83;;;1.93;;
10851;SDS011;5479;52.046;6.314;2022-11-23T12:23:03;7.17;;;2.13;;
10851;SDS011;5479;52.046;6.314;2022-11-23T12:25:42;4.43;;;1.80;;
10851;SDS011;5479;52.046;6.314;2022-11-23T12:28:27;8.43;;;2.43;;
10851;SDS011;5479;52.046;6.314;2022-11-23T12:31:10;7.07;;;2.60;;
10851;SDS011;5479;52.046;6.314;2022-11-23T12:33:53;5.73;;;1.73;;
10851;SDS011;5479;52.046;6.314;2022-11-23T12:36:37;6.23;;;1.93;;
10851;SDS011;5479;52.046;6.314;2022-11-23T12:39:24;9.27;;;2.07;;
10851;SDS011;5479;52.046;6.314;2022-11-23T12:42:07;6.07;;;1.77;;
10851;SDS011;5479;52.046;6.314;2022-11-23T12:44:46;11.30;;;2.20;;
10851;SDS011;5479;52.046;6.314;2022-11-23T12:47:23;7.57;;;1.93;;
10851;SDS011;5479;52.046;6.314;2022-11-23T12:50:02;8.07;;;2.30;;
10851;SDS011;5479;52.046;6.314;2022-11-23T12:52:53;6.17;;;2.13;;
10851;SDS011;5479;52.046;6.314;2022-11-23T12:55:31;7.20;;;1.80;;
10851;SDS011;5479;52.046;6.314;2022-11-23T12:58:11;5.87;;;1.80;;
10851;SDS011;5479;52.046;6.314;2022-11-23T13:00:48;6.97;;;2.57;;
10851;SDS011;5479;52.046;6.314;2022-11-23T13:06:50;7.07;;;2.33;;
10851;SDS011;5479;52.046;6.314;2022-11-23T13:09:49;7.53;;;2.40;;
10851;SDS011;5479;52.046;6.314;2022-11-23T13:12:40;6.27;;;1.93;;
10851;SDS011;5479;52.046;6.314;2022-11-23T13:15:28;6.57;;;2.10;;
10851;SDS011;5479;52.046;6.314;2022-11-23T13:18:11;5.27;;;2.40;;
10851;SDS011;5479;52.046;6.314;2022-11-23T13:20:57;6.70;;;2.37;;
10851;SDS011;5479;52.046;6.314;2022-11-23T13:23:35;7.93;;;1.97;;
10851;SDS011;5479;52.046;6.314;2022-11-23T13:26:11;6.03;;;2.00;;
10851;SDS011;5479;52.046;6.314;2022-11-23T13:28:40;5.97;;;1.90;;
10851;SDS011;5479;52.046;6.314;2022-11-23T13:33:56;7.73;;;2.20;;
10851;SDS011;5479;52.046;6.314;2022-11-23T13:36:39;6.20;;;1.90;;
10851;SDS011;5479;52.046;6.314;2022-11-23T13:42:25;7.20;;;2.60;;
10851;SDS011;5479;52.046;6.314;2022-11-23T13:45:12;5.43;;;2.33;;
10851;SDS011;5479;52.046;6.314;2022-11-23T13:50:56;6.50;;;2.40;;
10851;SDS011;5479;52.046;6.314;2022-11-23T13:53:27;9.03;;;2.27;;
10851;SDS011;5479;52.046;6.314;2022-11-23T13:56:00;9.70;;;2.60;;
10851;SDS011;5479;52.046;6.314;2022-11-23T13:58:51;5.33;;;2.10;;
10851;SDS011;5479;52.046;6.314;2022-11-23T14:04:41;7.47;;;2.20;;
10851;SDS011;5479;52.046;6.314;2022-11-23T14:07:13;6.53;;;2.43;;
10851;SDS011;5479;52.046;6.314;2022-11-23T14:09:48;6.20;;;2.13;;
10851;SDS011;5479;52.046;6.314;2022-11-23T14:12:21;6.83;;;2.20;;
10851;SDS011;5479;52.046;6.314;2022-11-23T14:14:57;8.50;;;2.30;;
10851;SDS011;5479;52.046;6.314;2022-11-23T14:20:46;6.33;;;1.90;;
10851;SDS011;5479;52.046;6.314;2022-11-23T14:23:35;7.83;;;2.27;;
10851;SDS011;5479;52.046;6.314;2022-11-23T14:26:29;5.23;;;1.83;;
10851;SDS011;5479;52.046;6.314;2022-11-23T14:29:06;6.67;;;2.50;;
10851;SDS011;5479;52.046;6.314;2022-11-23T14:31:49;8.47;;;2.40;;
10851;SDS011;5479;52.046;6.314;2022-11-23T14:34:31;5.97;;;2.20;;
10851;SDS011;5479;52.046;6.314;2022-11-23T14:37:10;6.13;;;1.97;;
10851;SDS011;5479;52.046;6.314;2022-11-23T14:42:40;5.93;;;1.80;;
10851;SDS011;5479;52.046;6.314;2022-11-23T14:45:11;6.70;;;2.20;;
10851;SDS011;5479;52.046;6.314;2022-11-23T14:47:42;6.17;;;1.80;;
10851;SDS011;5479;52.046;6.314;2022-11-23T14:50:20;5.17;;;1.80;;
10851;SDS011;5479;52.046;6.314;2022-11-23T14:52:49;6.37;;;2.43;;
10851;SDS011;5479;52.046;6.314;2022-11-23T14:55:21;4.47;;;1.67;;
10851;SDS011;5479;52.046;6.314;2022-11-23T14:57:53;6.23;;;2.03;;
10851;SDS011;5479;52.046;6.314;2022-11-23T15:00:26;6.07;;;1.90;;
10851;SDS011;5479;52.046;6.314;2022-11-23T15:02:58;5.20;;;1.70;;
10851;SDS011;5479;52.046;6.314;2022-11-23T15:05:32;4.73;;;1.90;;
10851;SDS011;5479;52.046;6.314;2022-11-23T15:08:01;8.00;;;2.10;;
10851;SDS011;5479;52.046;6.314;2022-11-23T15:10:39;6.03;;;2.03;;
10851;SDS011;5479;52.046;6.314;2022-11-23T15:13:15;4.83;;;1.90;;
10851;SDS011;5479;52.046;6.314;2022-11-23T15:15:47;5.80;;;2.20;;
10851;SDS011;5479;52.046;6.314;2022-11-23T15:18:28;5.87;;;1.83;;
10851;SDS011;5479;52.046;6.314;2022-11-23T15:20:57;4.80;;;1.70;;
10851;SDS011;5479;52.046;6.314;2022-11-23T15:23:40;4.00;;;1.60;;
10851;SDS011;5479;52.046;6.314;2022-11-23T15:26:13;6.93;;;1.90;;
10851;SDS011;5479;52.046;6.314;2022-11-23T15:28:44;4.53;;;2.30;;
10851;SDS011;5479;52.046;6.314;2022-11-23T15:31:15;5.07;;;2.10;;
10851;SDS011;5479;52.046;6.314;2022-11-23T15:33:45;4.10;;;1.90;;
10851;SDS011;5479;52.046;6.314;2022-11-23T15:36:15;7.97;;;2.10;;
10851;SDS011;5479;52.046;6.314;2022-11-23T15:38:45;5.57;;;1.90;;
10851;SDS011;5479;52.046;6.314;2022-11-23T15:41:14;6.13;;;2.13;;
10851;SDS011;5479;52.046;6.314;2022-11-23T15:43:50;6.50;;;1.90;;
10851;SDS011;5479;52.046;6.314;2022-11-23T15:46:19;5.97;;;2.23;;